Time;durP1;ratioP1;P1;durP2;ratioP2;P2;SDS_P1;SDS_P2;PMS_P1;PMS_P2;Temp;Humidity;BMP_temperature;BMP_pressure;BME280_temperature;BME280_humidity;BME280_pressure;Samples;Min_cycle;Max_cycle;Signal;HPM_P1;HPM_P2
2023/04/16 00:01:21;;;;;;;0.10;0.10;;;8.60;91.10;;;;;;5062371;28;20416;-69
2023/04/16 00:03:47;;;;;;;0.10;0.10;;;8.60;91.20;;;;;;5051918;28;20068;-69
2023/04/16 00:06:12;;;;;;;1.15;1.08;;;8.60;91.40;;;;;;5056408;28;20850;-69
2023/04/16 00:08:39;;;;;;;0.38;0.38;;;8.60;91.50;;;;;;5063370;28;20099;-68
2023/04/16 00:11:05;;;;;;;0.22;0.22;;;8.60;91.40;;;;;;5058287;28;20052;-69
2023/04/16 00:13:31;;;;;;;0.17;0.17;;;8.60;91.40;;;;;;5061997;28;20064;-68
2023/04/16 00:15:57;;;;;;;0.35;0.35;;;8.60;91.50;;;;;;5071233;28;20070;-68
2023/04/16 00:18:23;;;;;;;0.77;0.77;;;8.60;91.70;;;;;;5067774;28;20080;-70
2023/04/16 00:20:49;;;;;;;0.20;0.20;;;8.60;91.70;;;;;;5061375;28;20075;-68
2023/04/16 00:23:15;;;;;;;0.08;0.08;;;8.60;91.60;;;;;;5063552;28;20568;-68
2023/04/16 00:25:41;;;;;;;0.00;0.00;;;8.50;91.60;;;;;;5071103;28;20067;-68
2023/04/16 00:28:08;;;;;;;8.85;5.78;;;8.60;91.40;;;;;;5071354;28;20037;-68
2023/04/16 00:30:34;;;;;;;0.68;0.38;;;8.60;91.30;;;;;;5071526;28;20044;-68
2023/04/16 00:32:59;;;;;;;0.08;0.08;;;8.60;91.40;;;;;;5055117;28;20045;-69
2023/04/16 00:35:25;;;;;;;0.28;0.28;;;8.60;91.40;;;;;;5053564;28;20083;-69
2023/04/16 00:37:51;;;;;;;0.03;0.03;;;8.60;91.60;;;;;;5071138;28;20087;-68
2023/04/16 00:40:16;;;;;;;0.25;0.25;;;8.60;91.50;;;;;;5071086;28;20055;-68
2023/04/16 00:42:42;;;;;;;13.80;1.20;;;8.60;91.40;;;;;;5070539;28;20059;-68
2023/04/16 00:45:08;;;;;;;0.40;0.40;;;8.50;91.50;;;;;;5053021;28;20091;-68
2023/04/16 00:47:34;;;;;;;0.00;0.00;;;8.60;91.50;;;;;;5052643;28;20036;-69
2023/04/16 00:50:01;;;;;;;0.32;0.32;;;8.60;91.50;;;;;;5032709;28;20464;-69
2023/04/16 00:52:28;;;;;;;0.10;0.10;;;8.60;91.80;;;;;;5062653;28;20423;-70
2023/04/16 00:54:55;;;;;;;0.50;0.50;;;8.60;91.80;;;;;;5020333;28;20049;-69
2023/04/16 00:57:22;;;;;;;0.00;0.00;;;8.60;91.70;;;;;;5018029;28;20052;-69
2023/04/16 00:59:48;;;;;;;0.00;0.00;;;8.60;91.70;;;;;;5069859;28;20158;-69
2023/04/16 01:02:14;;;;;;;0.10;0.10;;;8.60;91.70;;;;;;5059937;28;20119;-69
2023/04/16 01:04:40;;;;;;;1.02;1.02;;;8.60;91.60;;;;;;5061917;28;20060;-70
2023/04/16 01:07:06;;;;;;;0.20;0.20;;;8.60;91.50;;;;;;5055127;28;20044;-69
2023/04/16 01:09:31;;;;;;;0.00;0.00;;;8.60;91.50;;;;;;5050418;28;20136;-69
2023/04/16 01:11:57;;;;;;;2.20;0.88;;;8.60;91.50;;;;;;5055594;28;20037;-69
2023/04/16 01:14:22;;;;;;;1.85;1.75;;;8.60;91.50;;;;;;5066469;28;20091;-69
2023/04/16 01:16:48;;;;;;;0.17;0.17;;;8.60;91.50;;;;;;5058009;28;20048;-69
2023/04/16 01:19:13;;;;;;;0.52;0.52;;;8.60;91.50;;;;;;5060440;28;20047;-69
2023/04/16 01:21:39;;;;;;;0.00;0.00;;;8.70;91.30;;;;;;5068358;28;20044;-69
2023/04/16 01:24:05;;;;;;;0.08;0.08;;;8.70;91.40;;;;;;5055538;28;20040;-69
2023/04/16 01:26:30;;;;;;;0.88;0.40;;;8.60;91.50;;;;;;5051831;28;20037;-68
2023/04/16 01:28:56;;;;;;;0.10;0.10;;;8.60;91.60;;;;;;5054781;28;20406;-69
2023/04/16 01:31:22;;;;;;;6.03;3.22;;;8.60;91.60;;;;;;5054935;28;20064;-69
2023/04/16 01:33:47;;;;;;;1.05;0.95;;;8.70;91.40;;;;;;5059736;28;20060;-69
2023/04/16 01:36:13;;;;;;;0.13;0.13;;;8.70;91.40;;;;;;5047898;28;20552;-69
2023/04/16 01:38:38;;;;;;;0.00;0.00;;;8.70;91.50;;;;;;5041074;28;20033;-69
2023/04/16 01:41:04;;;;;;;0.28;0.28;;;8.70;91.70;;;;;;5056602;28;20135;-70
2023/04/16 01:43:29;;;;;;;0.73;0.73;;;8.70;91.60;;;;;;5060506;28;20041;-68
2023/04/16 01:46:28;;;;;;;0.00;0.00;;;8.70;91.60;;;;;;5052825;28;20044;-69
2023/04/16 01:48:54;;;;;;;0.00;0.00;;;8.70;91.40;;;;;;5057012;28;20585;-68
2023/04/16 01:51:20;;;;;;;0.00;0.00;;;8.70;91.50;;;;;;5062443;28;20041;-68
2023/04/16 01:53:45;;;;;;;0.10;0.10;;;8.70;91.40;;;;;;5055114;28;20063;-69
2023/04/16 01:56:11;;;;;;;0.00;0.00;;;8.70;91.40;;;;;;5048923;28;20488;-69
2023/04/16 01:58:37;;;;;;;0.00;0.00;;;8.70;91.40;;;;;;5056829;28;20166;-68
2023/04/16 02:01:04;;;;;;;0.10;0.10;;;8.70;91.30;;;;;;5043497;28;20044;-69
2023/04/16 02:03:30;;;;;;;0.03;0.03;;;8.70;91.30;;;;;;5066432;28;20082;-68
2023/04/16 02:05:56;;;;;;;0.47;0.47;;;8.80;91.30;;;;;;5067899;28;20032;-68
2023/04/16 02:08:22;;;;;;;0.00;0.00;;;8.80;91.30;;;;;;5056442;28;20101;-68
2023/04/16 02:10:49;;;;;;;0.55;0.55;;;8.80;91.20;;;;;;5047412;28;20041;-69
2023/04/16 02:13:15;;;;;;;0.52;0.50;;;8.70;91.30;;;;;;5051785;28;20404;-69
2023/04/16 02:15:46;;;;;;;2.55;2.03;;;8.80;91.60;;;;;;5049413;28;20124;-68
2023/04/16 02:18:11;;;;;;;0.10;0.10;;;8.70;91.50;;;;;;5031864;28;20051;-68
2023/04/16 02:20:44;;;;;;;0.00;0.00;;;8.70;91.50;;;;;;5049072;28;20043;-68
2023/04/16 02:23:11;;;;;;;0.00;0.00;;;8.60;91.70;;;;;;5049458;28;20037;-68
2023/04/16 02:25:45;;;;;;;0.30;0.30;;;8.60;91.80;;;;;;5048969;28;20417;-69
2023/04/16 02:28:13;;;;;;;0.00;0.00;;;8.70;91.70;;;;;;5060496;28;20044;-68
2023/04/16 02:30:40;;;;;;;0.35;0.35;;;8.60;91.80;;;;;;5068832;28;20041;-68
2023/04/16 02:33:07;;;;;;;1.17;1.08;;;8.60;92.00;;;;;;5068577;28;20052;-69
2023/04/16 02:35:34;;;;;;;0.10;0.10;;;8.70;92.00;;;;;;5047329;28;20092;-68
2023/04/16 02:38:00;;;;;;;1.42;0.35;;;8.70;91.90;;;;;;5049089;28;20079;-68
2023/04/16 02:40:26;;;;;;;0.03;0.03;;;8.60;92.00;;;;;;5048546;28;20041;-69
2023/04/16 02:42:52;;;;;;;0.00;0.00;;;8.70;91.90;;;;;;5049260;28;20417;-69
2023/04/16 02:45:18;;;;;;;1.90;1.75;;;8.70;91.90;;;;;;5042387;28;20076;-69
2023/04/16 02:47:44;;;;;;;0.35;0.35;;;8.60;91.80;;;;;;5067046;28;20084;-69
2023/04/16 02:50:10;;;;;;;0.00;0.00;;;8.70;91.60;;;;;;5068673;28;20116;-70
2023/04/16 02:52:35;;;;;;;0.00;0.00;;;8.60;91.80;;;;;;5052002;28;20571;-69
2023/04/16 02:55:01;;;;;;;0.10;0.10;;;8.70;91.70;;;;;;5063089;28;20049;-68
2023/04/16 02:57:26;;;;;;;0.17;0.17;;;8.60;91.80;;;;;;5066956;28;20385;-69
2023/04/16 02:59:52;;;;;;;0.10;0.10;;;8.70;91.90;;;;;;5045237;28;20041;-68
2023/04/16 03:02:18;;;;;;;0.10;0.10;;;8.60;92.00;;;;;;5041745;28;20056;-69
2023/04/16 03:04:43;;;;;;;0.00;0.00;;;8.60;92.00;;;;;;5065472;28;20049;-69
2023/04/16 03:07:10;;;;;;;0.20;0.20;;;8.70;91.80;;;;;;5068088;28;20136;-70
2023/04/16 03:09:35;;;;;;;0.38;0.38;;;8.70;91.80;;;;;;5068500;28;20060;-69
2023/04/16 03:12:01;;;;;;;0.75;0.47;;;8.70;91.70;;;;;;5044857;28;20195;-68
2023/04/16 03:14:27;;;;;;;0.13;0.13;;;8.70;91.60;;;;;;5047947;28;20052;-69
2023/04/16 03:16:52;;;;;;;0.00;0.00;;;8.70;91.70;;;;;;5050848;28;20090;-68
2023/04/16 03:19:18;;;;;;;0.10;0.10;;;8.70;91.80;;;;;;5047001;28;20071;-68
2023/04/16 03:21:44;;;;;;;2.00;1.83;;;8.70;91.70;;;;;;5047798;28;20037;-69
2023/04/16 03:24:10;;;;;;;0.15;0.15;;;8.70;91.60;;;;;;5051315;28;20095;-70
2023/04/16 03:26:35;;;;;;;0.15;0.15;;;8.80;91.60;;;;;;5058479;28;20127;-68
2023/04/16 03:29:01;;;;;;;0.00;0.00;;;8.70;91.60;;;;;;5030424;28;20512;-69
2023/04/16 03:31:27;;;;;;;0.20;0.20;;;8.80;91.80;;;;;;5037402;28;20040;-70
2023/04/16 03:33:52;;;;;;;0.00;0.00;;;8.80;91.70;;;;;;5054588;28;20103;-68
2023/04/16 03:36:18;;;;;;;1.50;0.43;;;8.70;91.80;;;;;;5053110;28;20048;-68
2023/04/16 03:38:44;;;;;;;0.85;0.85;;;8.70;91.80;;;;;;5047980;28;20055;-68
2023/04/16 03:41:09;;;;;;;0.10;0.10;;;8.70;91.80;;;;;;5048872;28;20053;-69
2023/04/16 03:43:35;;;;;;;0.75;0.75;;;8.80;91.70;;;;;;5062332;28;20044;-68
2023/04/16 03:46:00;;;;;;;0.20;0.20;;;8.80;91.60;;;;;;5052914;28;20464;-68
2023/04/16 03:48:26;;;;;;;0.00;0.00;;;8.80;91.70;;;;;;5060603;28;20041;-68
2023/04/16 03:50:51;;;;;;;0.80;0.70;;;8.80;91.70;;;;;;5051873;28;20041;-68
2023/04/16 03:53:17;;;;;;;0.00;0.00;;;8.80;91.80;;;;;;5062588;28;20124;-68
2023/04/16 03:55:43;;;;;;;0.08;0.08;;;8.80;91.60;;;;;;5058208;28;20067;-69
2023/04/16 03:58:09;;;;;;;0.10;0.10;;;8.80;91.90;;;;;;5061494;28;20036;-68
2023/04/16 04:00:35;;;;;;;0.00;0.00;;;8.80;91.80;;;;;;5062109;28;20037;-68
2023/04/16 04:03:00;;;;;;;0.10;0.10;;;8.80;92.00;;;;;;5051011;28;20098;-68
2023/04/16 04:05:26;;;;;;;0.00;0.00;;;8.90;91.80;;;;;;5051470;28;20047;-69
2023/04/16 04:07:51;;;;;;;0.00;0.00;;;8.80;91.60;;;;;;5066328;28;20521;-69
2023/04/16 04:10:17;;;;;;;0.10;0.10;;;8.80;91.90;;;;;;5051921;28;20044;-68
2023/04/16 04:12:42;;;;;;;0.73;0.73;;;8.80;92.00;;;;;;5063367;28;20052;-69
2023/04/16 04:15:09;;;;;;;0.08;0.08;;;8.80;92.00;;;;;;5054887;28;20072;-69
2023/04/16 04:17:34;;;;;;;0.03;0.03;;;8.70;92.20;;;;;;5069360;28;20709;-68
2023/04/16 04:20:00;;;;;;;0.85;0.85;;;8.80;92.10;;;;;;5054330;28;20040;-68
2023/04/16 04:22:25;;;;;;;0.05;0.05;;;8.80;92.10;;;;;;5051393;28;20081;-68
2023/04/16 04:24:51;;;;;;;0.55;0.38;;;8.80;91.90;;;;;;5062657;28;20044;-68
2023/04/16 04:27:16;;;;;;;0.30;0.30;;;8.80;91.90;;;;;;5070590;28;20048;-69
2023/04/16 04:29:42;;;;;;;0.00;0.00;;;8.70;92.00;;;;;;5069703;28;20128;-68
2023/04/16 04:32:07;;;;;;;0.08;0.08;;;8.80;92.10;;;;;;5071041;28;20173;-68
2023/04/16 04:34:33;;;;;;;1.15;1.10;;;8.70;92.30;;;;;;5071022;28;20048;-69
2023/04/16 04:36:59;;;;;;;0.90;0.90;;;8.70;92.20;;;;;;5045264;28;20087;-69
2023/04/16 04:39:24;;;;;;;0.10;0.10;;;8.70;92.30;;;;;;5063035;28;20048;-69
2023/04/16 04:41:50;;;;;;;0.00;0.00;;;8.70;92.20;;;;;;5067014;28;20043;-68
2023/04/16 04:44:15;;;;;;;0.63;0.63;;;8.80;92.20;;;;;;5058538;28;20128;-68
2023/04/16 04:46:41;;;;;;;0.00;0.00;;;8.70;92.20;;;;;;5036034;28;20041;-68
2023/04/16 04:49:06;;;;;;;0.20;0.20;;;8.70;92.10;;;;;;5050940;28;20128;-68
2023/04/16 04:51:32;;;;;;;1.02;0.95;;;8.70;92.20;;;;;;5032809;28;20045;-67
2023/04/16 04:53:57;;;;;;;0.00;0.00;;;8.70;92.20;;;;;;5050693;28;20048;-69
2023/04/16 04:56:23;;;;;;;0.00;0.00;;;8.70;92.10;;;;;;5060199;28;20703;-67
2023/04/16 04:58:49;;;;;;;0.13;0.13;;;8.70;92.20;;;;;;5034871;28;20116;-67
2023/04/16 05:01:15;;;;;;;0.75;0.75;;;8.70;92.10;;;;;;5059430;28;20115;-67
2023/04/16 05:03:41;;;;;;;0.00;0.00;;;8.70;92.20;;;;;;5068734;28;20115;-67
2023/04/16 05:06:06;;;;;;;0.08;0.08;;;8.70;92.10;;;;;;5046625;28;20048;-68
2023/04/16 05:08:32;;;;;;;0.22;0.22;;;8.60;92.30;;;;;;5067708;28;20557;-67
2023/04/16 05:10:57;;;;;;;3.72;0.80;;;8.70;92.10;;;;;;5068854;28;20405;-67
2023/04/16 05:13:23;;;;;;;0.00;0.00;;;8.70;92.10;;;;;;5029944;28;20044;-68
2023/04/16 05:15:49;;;;;;;0.10;0.10;;;8.70;92.00;;;;;;5069694;28;20603;-68
2023/04/16 05:18:15;;;;;;;1.90;1.13;;;8.80;91.90;;;;;;5064949;28;20044;-67
2023/04/16 05:20:40;;;;;;;1.55;1.45;;;8.70;91.90;;;;;;5051371;28;20115;-67
2023/04/16 05:23:06;;;;;;;0.32;0.32;;;8.70;92.00;;;;;;5067574;28;20093;-67
2023/04/16 05:25:31;;;;;;;0.88;0.88;;;8.70;92.10;;;;;;5049740;28;20048;-67
2023/04/16 05:27:57;;;;;;;0.25;0.25;;;8.70;92.10;;;;;;5069454;28;20072;-67
2023/04/16 05:30:23;;;;;;;0.00;0.00;;;8.70;92.30;;;;;;5048822;28;20047;-67
2023/04/16 05:32:48;;;;;;;0.20;0.20;;;8.70;92.40;;;;;;5044673;28;20136;-69
2023/04/16 05:35:14;;;;;;;2.83;0.80;;;8.60;92.40;;;;;;5057203;28;20084;-67
2023/04/16 05:37:39;;;;;;;0.32;0.32;;;8.70;92.30;;;;;;5063193;28;20087;-67
2023/04/16 05:40:06;;;;;;;0.00;0.00;;;8.70;92.20;;;;;;5066426;28;20892;-67
2023/04/16 05:42:31;;;;;;;0.00;0.00;;;8.80;92.20;;;;;;5054855;28;20049;-67
2023/04/16 05:44:57;;;;;;;0.00;0.00;;;8.80;92.00;;;;;;5063066;28;20036;-67
2023/04/16 05:47:23;;;;;;;0.00;0.00;;;8.80;92.10;;;;;;5068906;28;20072;-67
2023/04/16 05:49:49;;;;;;;0.00;0.00;;;8.80;92.10;;;;;;5067889;28;20029;-67
2023/04/16 05:52:14;;;;;;;0.32;0.32;;;8.80;91.90;;;;;;5068349;28;20133;-68
2023/04/16 05:54:40;;;;;;;0.00;0.00;;;8.80;92.00;;;;;;5065141;28;20048;-67
2023/04/16 05:57:05;;;;;;;0.40;0.40;;;8.80;92.00;;;;;;5063530;28;20132;-67
2023/04/16 05:59:31;;;;;;;0.13;0.13;;;8.80;92.00;;;;;;5054280;28;20048;-67
2023/04/16 06:01:57;;;;;;;0.10;0.10;;;8.80;92.00;;;;;;5048904;28;20513;-67
2023/04/16 06:04:22;;;;;;;0.00;0.00;;;8.90;91.90;;;;;;5054074;28;20055;-66
2023/04/16 06:06:48;;;;;;;0.10;0.10;;;8.80;91.90;;;;;;5068683;28;20148;-67
2023/04/16 06:09:14;;;;;;;0.77;0.77;;;8.90;92.10;;;;;;5067352;28;20036;-67
2023/04/16 06:11:39;;;;;;;0.05;0.05;;;8.90;92.00;;;;;;5059629;28;20049;-68
2023/04/16 06:14:05;;;;;;;0.17;0.17;;;8.80;91.90;;;;;;5048842;28;20048;-67
2023/04/16 06:16:30;;;;;;;0.10;0.10;;;8.90;91.90;;;;;;5048481;28;20524;-67
2023/04/16 06:18:56;;;;;;;3.60;3.10;;;8.90;91.80;;;;;;5045139;28;20074;-67
2023/04/16 06:21:22;;;;;;;0.00;0.00;;;8.90;91.80;;;;;;5056195;28;20497;-67
2023/04/16 06:23:47;;;;;;;0.10;0.10;;;8.90;91.70;;;;;;5030510;28;20056;-67
2023/04/16 06:26:13;;;;;;;0.00;0.00;;;8.90;91.60;;;;;;5055613;28;20481;-67
2023/04/16 06:28:38;;;;;;;0.00;0.00;;;9.00;91.50;;;;;;5054668;28;20594;-67
2023/04/16 06:31:04;;;;;;;6.30;3.20;;;8.90;91.50;;;;;;5049242;28;20103;-67
2023/04/16 06:33:30;;;;;;;0.00;0.00;;;8.90;91.50;;;;;;5061339;28;20087;-68
2023/04/16 06:35:55;;;;;;;0.40;0.40;;;9.00;91.40;;;;;;5045417;28;20553;-67
2023/04/16 06:38:21;;;;;;;0.25;0.25;;;9.00;91.50;;;;;;5051283;28;20513;-68
2023/04/16 06:40:47;;;;;;;0.10;0.10;;;9.00;91.30;;;;;;5058227;28;20485;-68
2023/04/16 06:43:14;;;;;;;0.00;0.00;;;9.00;91.30;;;;;;5063356;28;20044;-68
2023/04/16 06:45:40;;;;;;;0.00;0.00;;;9.00;91.20;;;;;;5054652;28;20082;-67
2023/04/16 06:48:05;;;;;;;0.10;0.10;;;9.10;91.10;;;;;;5059248;28;20057;-68
2023/04/16 06:50:31;;;;;;;0.52;0.52;;;9.10;91.10;;;;;;5055528;28;20447;-68
2023/04/16 06:52:57;;;;;;;0.13;0.13;;;9.10;91.10;;;;;;5047766;28;20060;-68
2023/04/16 06:55:22;;;;;;;0.00;0.00;;;9.10;91.00;;;;;;5053934;28;20047;-67
2023/04/16 06:57:48;;;;;;;0.00;0.00;;;9.10;91.00;;;;;;5058179;28;20049;-67
2023/04/16 07:00:14;;;;;;;0.00;0.00;;;9.10;91.00;;;;;;5047470;28;20138;-68
2023/04/16 07:02:39;;;;;;;0.00;0.00;;;9.10;91.00;;;;;;5057485;28;20049;-68
2023/04/16 07:05:05;;;;;;;0.10;0.10;;;9.10;91.00;;;;;;5061601;28;20699;-67
2023/04/16 07:07:31;;;;;;;0.10;0.10;;;9.10;90.90;;;;;;5048132;28;20052;-67
2023/04/16 07:09:58;;;;;;;0.00;0.00;;;9.10;90.90;;;;;;5067912;28;20177;-67
2023/04/16 07:12:23;;;;;;;0.00;0.00;;;9.10;91.00;;;;;;5059918;28;20045;-67
2023/04/16 07:14:49;;;;;;;0.10;0.10;;;9.10;91.20;;;;;;5059572;28;20512;-67
2023/04/16 07:17:15;;;;;;;1.55;0.63;;;9.10;91.20;;;;;;5046382;28;20071;-67
2023/04/16 07:19:40;;;;;;;0.57;0.50;;;9.10;91.10;;;;;;5063419;28;20477;-67
2023/04/16 07:22:06;;;;;;;0.00;0.00;;;9.20;91.00;;;;;;5070662;28;20114;-67
2023/04/16 07:24:32;;;;;;;0.57;0.57;;;9.20;91.00;;;;;;5069740;28;20147;-68
2023/04/16 07:26:58;;;;;;;0.10;0.10;;;9.20;90.80;;;;;;5071623;28;20135;-68
2023/04/16 07:29:23;;;;;;;0.63;0.63;;;9.20;90.70;;;;;;5052252;28;20048;-68
2023/04/16 07:31:49;;;;;;;0.20;0.20;;;9.30;90.70;;;;;;5051603;28;20084;-67
2023/04/16 07:34:14;;;;;;;0.00;0.00;;;9.20;90.80;;;;;;5051725;28;20052;-68
2023/04/16 07:36:40;;;;;;;1.63;1.35;;;9.20;90.60;;;;;;5057341;28;20102;-68
2023/04/16 07:39:05;;;;;;;0.10;0.10;;;9.30;90.50;;;;;;5060784;28;20394;-68
2023/04/16 07:41:31;;;;;;;0.00;0.00;;;9.30;90.50;;;;;;5055777;28;20053;-67
2023/04/16 07:43:57;;;;;;;0.10;0.10;;;9.20;90.50;;;;;;5070996;28;20051;-68
2023/04/16 07:46:23;;;;;;;0.08;0.08;;;9.20;90.50;;;;;;5071397;28;20048;-67
2023/04/16 07:48:48;;;;;;;1.30;1.20;;;9.30;90.50;;;;;;5071100;28;20052;-68
2023/04/16 07:51:14;;;;;;;0.00;0.00;;;9.30;90.50;;;;;;5064545;28;20052;-67
2023/04/16 07:53:40;;;;;;;11.23;1.55;;;9.40;90.40;;;;;;5059210;28;20037;-68
2023/04/16 07:56:06;;;;;;;1.27;1.17;;;9.40;90.30;;;;;;5059182;28;20457;-66
2023/04/16 07:58:32;;;;;;;0.63;0.63;;;9.40;90.30;;;;;;5050927;28;20044;-65
2023/04/16 08:00:58;;;;;;;0.00;0.00;;;9.40;90.30;;;;;;5051633;28;20045;-66
2023/04/16 08:03:23;;;;;;;0.00;0.00;;;9.40;90.20;;;;;;5058239;28;20125;-65
2023/04/16 08:05:49;;;;;;;0.00;0.00;;;9.40;90.10;;;;;;5071577;28;20334;-66
2023/04/16 08:08:14;;;;;;;0.10;0.10;;;9.40;90.10;;;;;;5065169;28;20412;-66
2023/04/16 08:10:40;;;;;;;0.77;0.77;;;9.50;90.10;;;;;;5067859;28;20454;-65
2023/04/16 08:13:06;;;;;;;0.10;0.10;;;9.50;90.10;;;;;;5061777;28;20049;-66
2023/04/16 08:15:31;;;;;;;0.10;0.10;;;9.50;90.10;;;;;;5066591;28;20044;-66
2023/04/16 08:17:57;;;;;;;0.22;0.22;;;9.50;90.00;;;;;;5065917;28;20036;-66
2023/04/16 08:20:22;;;;;;;0.00;0.00;;;9.50;90.10;;;;;;5056545;28;20122;-66
2023/04/16 08:22:48;;;;;;;0.00;0.00;;;9.60;90.00;;;;;;5056489;28;20040;-65
2023/04/16 08:25:14;;;;;;;0.90;0.90;;;9.60;89.90;;;;;;5070419;28;20121;-66
2023/04/16 08:27:40;;;;;;;4.22;2.40;;;9.60;89.90;;;;;;5065150;28;20072;-66
2023/04/16 08:30:06;;;;;;;0.10;0.10;;;9.60;89.90;;;;;;5054585;28;20555;-66
2023/04/16 08:32:32;;;;;;;0.10;0.10;;;9.50;89.70;;;;;;5067436;28;20243;-66
2023/04/16 08:34:58;;;;;;;0.00;0.00;;;9.50;89.80;;;;;;5068857;28;20158;-67
2023/04/16 08:37:25;;;;;;;0.08;0.08;;;9.60;89.80;;;;;;5064767;28;20032;-67
2023/04/16 08:39:50;;;;;;;0.10;0.10;;;9.60;89.80;;;;;;5067061;28;20040;-66
2023/04/16 08:42:31;;;;;;;0.10;0.10;;;9.60;89.80;;;;;;5069266;28;20093;-66
2023/04/16 08:45:16;;;;;;;0.10;0.10;;;9.60;89.80;;;;;;5058533;28;20049;-65
2023/04/16 08:47:47;;;;;;;0.17;0.17;;;9.60;89.80;;;;;;5036758;28;20059;-65
2023/04/16 08:50:17;;;;;;;0.00;0.00;;;9.60;90.00;;;;;;5049518;28;20063;-65
2023/04/16 08:52:50;;;;;;;1.15;0.55;;;9.70;89.80;;;;;;5058917;28;20033;-66
2023/04/16 08:55:22;;;;;;;0.13;0.13;;;9.70;89.60;;;;;;5051316;28;20045;-66
2023/04/16 08:57:52;;;;;;;0.00;0.00;;;9.70;89.70;;;;;;5028645;28;20079;-65
2023/04/16 09:00:18;;;;;;;0.03;0.03;;;9.70;89.70;;;;;;5040982;28;20037;-65
2023/04/16 09:02:44;;;;;;;0.10;0.10;;;9.60;89.60;;;;;;5061416;28;20497;-66
2023/04/16 09:05:12;;;;;;;0.55;0.55;;;9.70;89.50;;;;;;5059777;28;20047;-66
2023/04/16 09:07:40;;;;;;;0.15;0.15;;;9.60;89.60;;;;;;5025921;28;20089;-66
2023/04/16 09:10:07;;;;;;;0.65;0.65;;;9.70;89.60;;;;;;5052466;28;20499;-65
2023/04/16 09:12:34;;;;;;;0.20;0.20;;;9.70;89.50;;;;;;5035975;28;20049;-66
2023/04/16 09:15:01;;;;;;;0.20;0.20;;;9.80;89.70;;;;;;5057109;28;20052;-66
2023/04/16 09:17:27;;;;;;;0.03;0.03;;;9.80;89.50;;;;;;5063269;28;20048;-66
2023/04/16 09:19:53;;;;;;;2.33;2.13;;;9.90;89.50;;;;;;5057502;28;20562;-66
2023/04/16 09:22:20;;;;;;;0.00;0.00;;;9.90;89.40;;;;;;5069302;28;20094;-66
2023/04/16 09:24:45;;;;;;;0.10;0.10;;;9.90;89.30;;;;;;5054669;28;20413;-66
2023/04/16 09:27:12;;;;;;;0.77;0.77;;;10.00;89.10;;;;;;5054444;28;20033;-67
2023/04/16 09:29:39;;;;;;;0.10;0.10;;;10.00;89.30;;;;;;5038989;28;20733;-66
2023/04/16 09:32:10;;;;;;;0.30;0.30;;;10.10;89.20;;;;;;5049251;28;20409;-65
2023/04/16 09:34:52;;;;;;;0.00;0.00;;;10.10;89.10;;;;;;5054868;28;20056;-66
2023/04/16 09:37:18;;;;;;;0.00;0.00;;;10.20;89.00;;;;;;5062614;28;20044;-66
2023/04/16 09:39:52;;;;;;;0.63;0.63;;;10.10;88.70;;;;;;5058577;28;20056;-66
2023/04/16 09:42:22;;;;;;;0.00;0.00;;;10.10;88.80;;;;;;5067802;28;20040;-66
2023/04/16 09:44:48;;;;;;;4.38;2.35;;;10.20;88.70;;;;;;5056243;28;20114;-66
2023/04/16 09:47:14;;;;;;;0.35;0.35;;;10.10;88.40;;;;;;5019095;28;20080;-66
2023/04/16 09:49:41;;;;;;;0.00;0.00;;;10.20;88.60;;;;;;5066457;28;20064;-66
2023/04/16 09:52:16;;;;;;;0.00;0.00;;;10.20;88.70;;;;;;5063514;28;20040;-66
2023/04/16 09:54:52;;;;;;;0.00;0.00;;;10.30;88.70;;;;;;5058500;28;20104;-66
2023/04/16 09:57:23;;;;;;;0.20;0.20;;;10.50;88.60;;;;;;5058878;28;20044;-66
2023/04/16 10:00:01;;;;;;;0.43;0.43;;;10.50;88.50;;;;;;5066778;28;20468;-66
2023/04/16 10:02:28;;;;;;;0.22;0.22;;;10.60;88.30;;;;;;5066124;28;20090;-66
2023/04/16 10:04:54;;;;;;;2.28;0.95;;;10.60;88.10;;;;;;5066062;28;20056;-66
2023/04/16 10:07:20;;;;;;;0.00;0.00;;;10.60;88.00;;;;;;5068188;28;20036;-65
2023/04/16 10:09:51;;;;;;;0.00;0.00;;;10.70;88.10;;;;;;5058350;28;20390;-66
2023/04/16 10:12:17;;;;;;;1.20;1.10;;;10.80;88.00;;;;;;5065407;28;20040;-66
2023/04/16 10:14:42;;;;;;;0.30;0.30;;;10.70;87.30;;;;;;5066230;28;20114;-66
2023/04/16 10:17:08;;;;;;;0.52;0.52;;;10.70;87.60;;;;;;5063039;28;20033;-65
2023/04/16 10:19:34;;;;;;;1.45;1.27;;;10.80;87.50;;;;;;5066401;28;20120;-65
2023/04/16 10:22:01;;;;;;;0.80;0.80;;;10.80;87.50;;;;;;5069549;28;20388;-65
2023/04/16 10:24:31;;;;;;;0.35;0.35;;;10.90;87.50;;;;;;5068334;28;20409;-65
2023/04/16 10:26:58;;;;;;;6.15;1.67;;;11.00;87.50;;;;;;5053916;28;20056;-66
2023/04/16 10:29:25;;;;;;;0.00;0.00;;;11.00;87.30;;;;;;5048281;28;20114;-66
2023/04/16 10:31:52;;;;;;;0.00;0.00;;;11.00;87.20;;;;;;5063915;28;20079;-68
2023/04/16 10:34:19;;;;;;;0.00;0.00;;;11.00;87.20;;;;;;5055834;28;20063;-66
2023/04/16 10:36:51;;;;;;;1.27;1.17;;;11.00;87.00;;;;;;5067671;28;20489;-66
2023/04/16 10:39:19;;;;;;;0.00;0.00;;;11.00;86.70;;;;;;5058516;28;20049;-65
2023/04/16 10:41:45;;;;;;;0.10;0.10;;;11.00;86.80;;;;;;5059688;28;20561;-65
2023/04/16 10:44:11;;;;;;;0.00;0.00;;;11.00;86.90;;;;;;5052112;28;20047;-65
2023/04/16 10:46:38;;;;;;;2.13;2.03;;;11.10;86.90;;;;;;5048779;28;20041;-65
2023/04/16 10:49:17;;;;;;;0.00;0.00;;;11.10;86.70;;;;;;5060374;28;20044;-65
2023/04/16 10:51:54;;;;;;;0.28;0.28;;;11.10;86.40;;;;;;5064975;28;20052;-65
2023/04/16 10:54:20;;;;;;;0.00;0.00;;;11.10;86.70;;;;;;5046317;28;20095;-65
2023/04/16 10:56:46;;;;;;;0.47;0.47;;;11.10;86.70;;;;;;5072625;28;20084;-65
2023/04/16 10:59:12;;;;;;;0.05;0.05;;;11.00;86.70;;;;;;5072236;28;20041;-65
2023/04/16 11:01:45;;;;;;;0.22;0.22;;;11.10;86.80;;;;;;5063372;28;20047;-65
2023/04/16 11:04:19;;;;;;;0.00;0.00;;;11.10;86.80;;;;;;5040232;28;20136;-65
2023/04/16 11:07:10;;;;;;;0.00;0.00;;;11.10;86.80;;;;;;5059471;28;20064;-66
2023/04/16 11:09:53;;;;;;;0.00;0.00;;;11.10;86.30;;;;;;5052805;28;20059;-65
2023/04/16 11:12:34;;;;;;;0.40;0.40;;;11.20;86.70;;;;;;5061353;28;20041;-66
2023/04/16 11:15:20;;;;;;;0.03;0.03;;;11.10;86.30;;;;;;5055104;28;20099;-65
2023/04/16 11:17:49;;;;;;;0.00;0.00;;;11.20;86.60;;;;;;5066120;28;20040;-66
2023/04/16 11:20:22;;;;;;;0.00;0.00;;;11.20;86.40;;;;;;5070541;28;20052;-66
2023/04/16 11:22:53;;;;;;;0.32;0.32;;;11.20;86.10;;;;;;5051901;28;20041;-66
2023/04/16 11:25:29;;;;;;;1.30;1.20;;;11.20;86.30;;;;;;5061160;28;20041;-64
2023/04/16 11:27:57;;;;;;;0.00;0.00;;;11.20;86.20;;;;;;5060481;28;20123;-64
2023/04/16 11:30:32;;;;;;;0.00;0.00;;;11.20;85.80;;;;;;5051691;28;20124;-64
2023/04/16 11:32:58;;;;;;;0.03;0.03;;;11.10;85.90;;;;;;5057890;28;20059;-63
2023/04/16 11:35:24;;;;;;;0.00;0.00;;;11.20;86.10;;;;;;5072268;28;20048;-64
2023/04/16 11:37:55;;;;;;;4.35;1.38;;;11.20;86.10;;;;;;5072255;28;20148;-64
2023/04/16 11:40:21;;;;;;;0.00;0.00;;;11.20;86.10;;;;;;5072529;28;20086;-63
2023/04/16 11:42:46;;;;;;;0.00;0.00;;;11.30;85.90;;;;;;5071675;28;20076;-63
2023/04/16 11:45:12;;;;;;;0.22;0.22;;;11.30;86.10;;;;;;5054395;28;20424;-63
2023/04/16 11:47:45;;;;;;;0.20;0.20;;;11.30;85.80;;;;;;5072091;28;20124;-64
2023/04/16 11:50:19;;;;;;;0.52;0.52;;;11.30;85.70;;;;;;5072236;28;20515;-64
2023/04/16 11:52:44;;;;;;;0.30;0.30;;;11.20;85.50;;;;;;5071828;28;20705;-63
2023/04/16 11:55:10;;;;;;;0.10;0.10;;;11.30;85.40;;;;;;5072050;28;20047;-63
2023/04/16 11:57:37;;;;;;;0.35;0.35;;;11.20;85.30;;;;;;5071647;28;20040;-64
2023/04/16 12:00:04;;;;;;;0.08;0.08;;;11.20;85.30;;;;;;5071843;28;20049;-64
2023/04/16 12:02:38;;;;;;;0.03;0.03;;;11.20;85.10;;;;;;5036757;28;20048;-63
2023/04/16 12:05:05;;;;;;;0.00;0.00;;;11.20;85.20;;;;;;5071736;28;20048;-64
2023/04/16 12:07:30;;;;;;;0.10;0.10;;;11.30;85.30;;;;;;5071653;28;20084;-63
2023/04/16 12:10:06;;;;;;;0.10;0.10;;;11.30;85.30;;;;;;5071600;28;20072;-63
2023/04/16 12:12:32;;;;;;;0.47;0.47;;;11.30;85.20;;;;;;5068575;28;20120;-64
2023/04/16 12:15:00;;;;;;;0.00;0.00;;;11.40;85.10;;;;;;5054080;28;20120;-63
2023/04/16 12:17:26;;;;;;;0.00;0.00;;;11.50;85.20;;;;;;5045357;28;20048;-63
2023/04/16 12:19:55;;;;;;;0.20;0.20;;;11.60;84.90;;;;;;5071717;28;20045;-63
2023/04/16 12:22:33;;;;;;;0.00;0.00;;;11.60;84.70;;;;;;5053293;28;20041;-63
2023/04/16 12:25:04;;;;;;;0.00;0.00;;;11.70;84.50;;;;;;5051233;28;20587;-63
2023/04/16 12:27:54;;;;;;;0.20;0.20;;;11.70;84.50;;;;;;5051706;28;20052;-64
2023/04/16 12:30:22;;;;;;;1.25;1.15;;;11.70;84.20;;;;;;5055083;28;20143;-64
2023/04/16 12:32:50;;;;;;;0.20;0.20;;;11.70;84.30;;;;;;5034107;28;20264;-64
2023/04/16 12:35:32;;;;;;;3.78;1.08;;;11.90;84.10;;;;;;5054811;28;20043;-64
2023/04/16 12:37:59;;;;;;;0.10;0.10;;;11.90;84.30;;;;;;5070415;28;20040;-64
2023/04/16 12:40:25;;;;;;;0.00;0.00;;;11.90;83.90;;;;;;5070931;28;20044;-64
2023/04/16 12:42:51;;;;;;;0.00;0.00;;;11.90;83.70;;;;;;5059904;28;20040;-63
2023/04/16 12:45:17;;;;;;;0.38;0.38;;;11.90;83.70;;;;;;5061658;28;20049;-64
2023/04/16 12:47:42;;;;;;;0.00;0.00;;;11.90;83.70;;;;;;5051127;28;20037;-64
2023/04/16 12:50:08;;;;;;;0.63;0.63;;;11.90;83.60;;;;;;5065925;28;20042;-64
2023/04/16 12:52:34;;;;;;;0.10;0.10;;;12.00;83.50;;;;;;5070832;28;20151;-64
2023/04/16 12:55:03;;;;;;;0.00;0.00;;;12.00;83.40;;;;;;5067086;28;20068;-64